sensor_id;sensor_type;location;lat;lon;timestamp;P1;durP1;ratioP1;P2;durP2;ratioP2
42944;SDS011;28584;42.636;23.294;2023-07-29T00:00:41;3.47;;;2.95;;
42944;SDS011;28584;42.636;23.294;2023-07-29T00:03:07;4.05;;;3.33;;
42944;SDS011;28584;42.636;23.294;2023-07-29T00:05:33;3.33;;;3.03;;
42944;SDS011;28584;42.636;23.294;2023-07-29T00:07:59;3.65;;;3.35;;
42944;SDS011;28584;42.636;23.294;2023-07-29T00:10:24;2.88;;;2.67;;
42944;SDS011;28584;42.636;23.294;2023-07-29T00:12:50;2.92;;;2.72;;
42944;SDS011;28584;42.636;23.294;2023-07-29T00:15:15;4.25;;;3.60;;
42944;SDS011;28584;42.636;23.294;2023-07-29T00:17:41;4.13;;;3.42;;
42944;SDS011;28584;42.636;23.294;2023-07-29T00:20:06;6.18;;;3.30;;
42944;SDS011;28584;42.636;23.294;2023-07-29T00:22:32;4.28;;;3.38;;
42944;SDS011;28584;42.636;23.294;2023-07-29T00:24:58;4.80;;;3.20;;
42944;SDS011;28584;42.636;23.294;2023-07-29T00:27:24;3.88;;;3.30;;
42944;SDS011;28584;42.636;23.294;2023-07-29T00:29:50;5.55;;;3.25;;
42944;SDS011;28584;42.636;23.294;2023-07-29T00:32:15;4.97;;;3.00;;
42944;SDS011;28584;42.636;23.294;2023-07-29T00:34:41;3.70;;;3.30;;
42944;SDS011;28584;42.636;23.294;2023-07-29T00:37:07;3.95;;;3.40;;
42944;SDS011;28584;42.636;23.294;2023-07-29T00:39:32;3.25;;;2.83;;
42944;SDS011;28584;42.636;23.294;2023-07-29T00:41:58;3.65;;;3.28;;
42944;SDS011;28584;42.636;23.294;2023-07-29T00:44:24;4.93;;;3.63;;
42944;SDS011;28584;42.636;23.294;2023-07-29T00:46:52;3.85;;;2.80;;
42944;SDS011;28584;42.636;23.294;2023-07-29T00:49:19;3.65;;;3.30;;
42944;SDS011;28584;42.636;23.294;2023-07-29T00:51:45;3.90;;;3.60;;
42944;SDS011;28584;42.636;23.294;2023-07-29T00:54:11;4.72;;;3.88;;
42944;SDS011;28584;42.636;23.294;2023-07-29T00:56:37;5.22;;;4.03;;
42944;SDS011;28584;42.636;23.294;2023-07-29T00:59:03;5.40;;;4.10;;
42944;SDS011;28584;42.636;23.294;2023-07-29T01:01:29;4.43;;;3.65;;
42944;SDS011;28584;42.636;23.294;2023-07-29T01:03:55;3.20;;;2.90;;
42944;SDS011;28584;42.636;23.294;2023-07-29T01:11:45;4.25;;;3.63;;
42944;SDS011;28584;42.636;23.294;2023-07-29T01:14:36;4.25;;;3.45;;
42944;SDS011;28584;42.636;23.294;2023-07-29T01:17:12;4.90;;;4.20;;
42944;SDS011;28584;42.636;23.294;2023-07-29T01:22:18;5.03;;;3.40;;
42944;SDS011;28584;42.636;23.294;2023-07-29T01:24:45;4.35;;;3.10;;
42944;SDS011;28584;42.636;23.294;2023-07-29T01:27:11;3.80;;;3.50;;
42944;SDS011;28584;42.636;23.294;2023-07-29T01:29:36;4.97;;;3.33;;
42944;SDS011;28584;42.636;23.294;2023-07-29T01:32:04;4.20;;;3.47;;
42944;SDS011;28584;42.636;23.294;2023-07-29T01:34:39;4.40;;;3.60;;
42944;SDS011;28584;42.636;23.294;2023-07-29T01:37:19;3.92;;;3.58;;
42944;SDS011;28584;42.636;23.294;2023-07-29T01:39:49;4.80;;;3.97;;
42944;SDS011;28584;42.636;23.294;2023-07-29T01:42:15;4.20;;;3.80;;
42944;SDS011;28584;42.636;23.294;2023-07-29T01:44:41;5.03;;;4.53;;
42944;SDS011;28584;42.636;23.294;2023-07-29T01:47:07;4.88;;;3.83;;
42944;SDS011;28584;42.636;23.294;2023-07-29T01:49:33;5.85;;;4.10;;
42944;SDS011;28584;42.636;23.294;2023-07-29T01:51:58;4.97;;;3.88;;
42944;SDS011;28584;42.636;23.294;2023-07-29T01:54:24;4.68;;;3.80;;
42944;SDS011;28584;42.636;23.294;2023-07-29T01:56:50;4.13;;;3.83;;
42944;SDS011;28584;42.636;23.294;2023-07-29T01:59:16;5.53;;;4.03;;
42944;SDS011;28584;42.636;23.294;2023-07-29T02:01:42;4.03;;;3.60;;
42944;SDS011;28584;42.636;23.294;2023-07-29T02:04:08;4.10;;;3.45;;
42944;SDS011;28584;42.636;23.294;2023-07-29T02:06:33;4.82;;;3.55;;
42944;SDS011;28584;42.636;23.294;2023-07-29T02:08:58;5.43;;;3.05;;
42944;SDS011;28584;42.636;23.294;2023-07-29T02:11:24;5.00;;;3.30;;
42944;SDS011;28584;42.636;23.294;2023-07-29T02:13:53;4.28;;;3.80;;
42944;SDS011;28584;42.636;23.294;2023-07-29T02:16:19;4.88;;;3.75;;
42944;SDS011;28584;42.636;23.294;2023-07-29T02:18:45;4.25;;;3.35;;
42944;SDS011;28584;42.636;23.294;2023-07-29T02:21:11;4.00;;;3.53;;
42944;SDS011;28584;42.636;23.294;2023-07-29T02:23:36;5.63;;;4.40;;
42944;SDS011;28584;42.636;23.294;2023-07-29T02:26:01;5.75;;;5.18;;
42944;SDS011;28584;42.636;23.294;2023-07-29T02:28:27;7.85;;;6.22;;
42944;SDS011;28584;42.636;23.294;2023-07-29T02:33:47;6.18;;;4.32;;
42944;SDS011;28584;42.636;23.294;2023-07-29T02:36:13;6.32;;;4.10;;
42944;SDS011;28584;42.636;23.294;2023-07-29T02:38:39;6.28;;;3.53;;
42944;SDS011;28584;42.636;23.294;2023-07-29T02:41:05;4.30;;;3.50;;
42944;SDS011;28584;42.636;23.294;2023-07-29T02:43:31;3.13;;;2.88;;
42944;SDS011;28584;42.636;23.294;2023-07-29T02:45:56;3.63;;;3.33;;
42944;SDS011;28584;42.636;23.294;2023-07-29T02:48:22;5.57;;;4.03;;
42944;SDS011;28584;42.636;23.294;2023-07-29T02:50:47;4.25;;;3.45;;
42944;SDS011;28584;42.636;23.294;2023-07-29T02:53:13;4.13;;;3.72;;
42944;SDS011;28584;42.636;23.294;2023-07-29T02:55:41;6.20;;;3.90;;
42944;SDS011;28584;42.636;23.294;2023-07-29T02:58:07;4.82;;;3.60;;
42944;SDS011;28584;42.636;23.294;2023-07-29T03:00:33;3.47;;;3.17;;
42944;SDS011;28584;42.636;23.294;2023-07-29T03:02:59;5.22;;;3.65;;
42944;SDS011;28584;42.636;23.294;2023-07-29T03:05:27;4.13;;;3.72;;
42944;SDS011;28584;42.636;23.294;2023-07-29T03:07:52;4.55;;;3.60;;
42944;SDS011;28584;42.636;23.294;2023-07-29T03:10:18;6.18;;;4.85;;
42944;SDS011;28584;42.636;23.294;2023-07-29T03:12:43;5.20;;;3.53;;
42944;SDS011;28584;42.636;23.294;2023-07-29T03:15:09;4.57;;;3.72;;
42944;SDS011;28584;42.636;23.294;2023-07-29T03:17:34;5.88;;;4.63;;
42944;SDS011;28584;42.636;23.294;2023-07-29T03:20:00;5.30;;;3.83;;
42944;SDS011;28584;42.636;23.294;2023-07-29T03:22:25;3.90;;;3.60;;
42944;SDS011;28584;42.636;23.294;2023-07-29T03:24:51;4.50;;;3.72;;
42944;SDS011;28584;42.636;23.294;2023-07-29T03:27:16;5.32;;;4.00;;
42944;SDS011;28584;42.636;23.294;2023-07-29T03:29:42;5.28;;;4.55;;
42944;SDS011;28584;42.636;23.294;2023-07-29T03:32:07;3.75;;;3.45;;
42944;SDS011;28584;42.636;23.294;2023-07-29T03:34:33;5.93;;;4.00;;
42944;SDS011;28584;42.636;23.294;2023-07-29T03:36:59;3.85;;;3.45;;
42944;SDS011;28584;42.636;23.294;2023-07-29T03:39:26;4.82;;;3.38;;
42944;SDS011;28584;42.636;23.294;2023-07-29T03:41:51;6.10;;;3.45;;
42944;SDS011;28584;42.636;23.294;2023-07-29T03:44:17;5.10;;;3.28;;
42944;SDS011;28584;42.636;23.294;2023-07-29T03:46:43;4.03;;;3.53;;
42944;SDS011;28584;42.636;23.294;2023-07-29T03:49:09;5.35;;;3.53;;
42944;SDS011;28584;42.636;23.294;2023-07-29T03:51:34;5.53;;;3.75;;
42944;SDS011;28584;42.636;23.294;2023-07-29T03:54:00;4.70;;;4.20;;
42944;SDS011;28584;42.636;23.294;2023-07-29T03:56:26;4.05;;;3.63;;
42944;SDS011;28584;42.636;23.294;2023-07-29T03:58:52;5.15;;;3.10;;
42944;SDS011;28584;42.636;23.294;2023-07-29T04:01:18;3.55;;;3.25;;
42944;SDS011;28584;42.636;23.294;2023-07-29T04:03:47;4.07;;;3.60;;
42944;SDS011;28584;42.636;23.294;2023-07-29T04:06:12;4.63;;;3.80;;
42944;SDS011;28584;42.636;23.294;2023-07-29T04:08:38;4.28;;;3.63;;
42944;SDS011;28584;42.636;23.294;2023-07-29T04:11:03;5.35;;;4.63;;
42944;SDS011;28584;42.636;23.294;2023-07-29T04:13:29;5.38;;;4.38;;
42944;SDS011;28584;42.636;23.294;2023-07-29T04:15:54;5.68;;;3.92;;
42944;SDS011;28584;42.636;23.294;2023-07-29T04:18:19;5.10;;;3.85;;
42944;SDS011;28584;42.636;23.294;2023-07-29T04:20:45;7.00;;;4.00;;
42944;SDS011;28584;42.636;23.294;2023-07-29T04:23:10;6.28;;;4.40;;
42944;SDS011;28584;42.636;23.294;2023-07-29T04:25:36;6.50;;;4.90;;
42944;SDS011;28584;42.636;23.294;2023-07-29T04:28:01;5.18;;;4.70;;
42944;SDS011;28584;42.636;23.294;2023-07-29T04:30:28;5.68;;;4.72;;
42944;SDS011;28584;42.636;23.294;2023-07-29T04:32:54;6.22;;;5.50;;
42944;SDS011;28584;42.636;23.294;2023-07-29T04:35:19;12.88;;;5.97;;
42944;SDS011;28584;42.636;23.294;2023-07-29T04:37:45;7.10;;;5.63;;
42944;SDS011;28584;42.636;23.294;2023-07-29T04:40:13;6.65;;;5.00;;
42944;SDS011;28584;42.636;23.294;2023-07-29T04:42:38;6.03;;;5.05;;
42944;SDS011;28584;42.636;23.294;2023-07-29T04:45:04;6.93;;;5.30;;
42944;SDS011;28584;42.636;23.294;2023-07-29T04:47:30;6.60;;;5.07;;
42944;SDS011;28584;42.636;23.294;2023-07-29T04:49:55;7.05;;;4.95;;
42944;SDS011;28584;42.636;23.294;2023-07-29T04:52:20;6.63;;;5.10;;
42944;SDS011;28584;42.636;23.294;2023-07-29T04:54:46;6.40;;;4.60;;
42944;SDS011;28584;42.636;23.294;2023-07-29T04:57:12;6.30;;;4.93;;
42944;SDS011;28584;42.636;23.294;2023-07-29T04:59:37;5.47;;;4.85;;
42944;SDS011;28584;42.636;23.294;2023-07-29T05:02:03;7.20;;;4.47;;
42944;SDS011;28584;42.636;23.294;2023-07-29T05:04:28;5.00;;;4.40;;
42944;SDS011;28584;42.636;23.294;2023-07-29T05:06:54;4.68;;;4.13;;
42944;SDS011;28584;42.636;23.294;2023-07-29T05:09:19;5.30;;;4.80;;
42944;SDS011;28584;42.636;23.294;2023-07-29T05:11:47;6.28;;;4.60;;
42944;SDS011;28584;42.636;23.294;2023-07-29T05:14:14;5.22;;;4.70;;
42944;SDS011;28584;42.636;23.294;2023-07-29T05:16:40;4.97;;;4.43;;
42944;SDS011;28584;42.636;23.294;2023-07-29T05:19:06;5.65;;;4.55;;
42944;SDS011;28584;42.636;23.294;2023-07-29T05:21:31;7.57;;;4.78;;
42944;SDS011;28584;42.636;23.294;2023-07-29T05:23:57;6.25;;;4.93;;
42944;SDS011;28584;42.636;23.294;2023-07-29T05:26:23;9.75;;;5.05;;
42944;SDS011;28584;42.636;23.294;2023-07-29T05:28:48;10.57;;;5.50;;
42944;SDS011;28584;42.636;23.294;2023-07-29T05:31:14;8.48;;;5.38;;
42944;SDS011;28584;42.636;23.294;2023-07-29T05:33:39;9.00;;;4.90;;
42944;SDS011;28584;42.636;23.294;2023-07-29T05:36:05;5.25;;;4.65;;
42944;SDS011;28584;42.636;23.294;2023-07-29T05:38:30;6.90;;;4.20;;
42944;SDS011;28584;42.636;23.294;2023-07-29T05:40:56;10.60;;;4.60;;
42944;SDS011;28584;42.636;23.294;2023-07-29T05:43:23;9.93;;;5.80;;
42944;SDS011;28584;42.636;23.294;2023-07-29T05:45:49;8.70;;;5.70;;
42944;SDS011;28584;42.636;23.294;2023-07-29T05:48:15;10.80;;;4.95;;
42944;SDS011;28584;42.636;23.294;2023-07-29T05:50:41;9.18;;;5.43;;
42944;SDS011;28584;42.636;23.294;2023-07-29T05:53:07;7.15;;;5.45;;
42944;SDS011;28584;42.636;23.294;2023-07-29T05:55:32;6.50;;;5.15;;
42944;SDS011;28584;42.636;23.294;2023-07-29T05:57:57;6.13;;;5.53;;
42944;SDS011;28584;42.636;23.294;2023-07-29T06:00:23;5.82;;;4.57;;
42944;SDS011;28584;42.636;23.294;2023-07-29T06:02:48;10.00;;;5.55;;
42944;SDS011;28584;42.636;23.294;2023-07-29T06:05:14;7.40;;;5.20;;
42944;SDS011;28584;42.636;23.294;2023-07-29T06:07:39;6.38;;;4.97;;
42944;SDS011;28584;42.636;23.294;2023-07-29T06:10:09;8.48;;;5.22;;
42944;SDS011;28584;42.636;23.294;2023-07-29T06:12:37;6.05;;;4.50;;
42944;SDS011;28584;42.636;23.294;2023-07-29T06:15:02;7.30;;;4.63;;
42944;SDS011;28584;42.636;23.294;2023-07-29T06:17:29;6.88;;;4.63;;
42944;SDS011;28584;42.636;23.294;2023-07-29T06:19:55;9.68;;;4.25;;
42944;SDS011;28584;42.636;23.294;2023-07-29T06:22:20;9.88;;;4.57;;
42944;SDS011;28584;42.636;23.294;2023-07-29T06:24:46;7.30;;;4.15;;
42944;SDS011;28584;42.636;23.294;2023-07-29T06:27:11;7.85;;;4.38;;
42944;SDS011;28584;42.636;23.294;2023-07-29T06:29:37;6.57;;;4.55;;
42944;SDS011;28584;42.636;23.294;2023-07-29T06:32:02;7.18;;;4.30;;
42944;SDS011;28584;42.636;23.294;2023-07-29T06:34:28;6.55;;;4.55;;
42944;SDS011;28584;42.636;23.294;2023-07-29T06:36:53;7.78;;;3.97;;
42944;SDS011;28584;42.636;23.294;2023-07-29T06:39:19;6.45;;;4.40;;
42944;SDS011;28584;42.636;23.294;2023-07-29T06:41:44;7.10;;;4.32;;
42944;SDS011;28584;42.636;23.294;2023-07-29T06:44:10;7.47;;;4.50;;
42944;SDS011;28584;42.636;23.294;2023-07-29T06:46:35;11.18;;;4.22;;
42944;SDS011;28584;42.636;23.294;2023-07-29T06:49:00;9.00;;;3.97;;
42944;SDS011;28584;42.636;23.294;2023-07-29T06:51:26;6.20;;;4.20;;
42944;SDS011;28584;42.636;23.294;2023-07-29T06:53:51;9.13;;;4.60;;
42944;SDS011;28584;42.636;23.294;2023-07-29T06:56:17;7.15;;;4.45;;
42944;SDS011;28584;42.636;23.294;2023-07-29T06:58:42;5.97;;;4.00;;
42944;SDS011;28584;42.636;23.294;2023-07-29T07:01:08;6.55;;;4.10;;
42944;SDS011;28584;42.636;23.294;2023-07-29T07:03:33;4.55;;;4.05;;
42944;SDS011;28584;42.636;23.294;2023-07-29T07:05:59;5.95;;;4.40;;
42944;SDS011;28584;42.636;23.294;2023-07-29T07:08:24;7.43;;;4.20;;
42944;SDS011;28584;42.636;23.294;2023-07-29T07:10:50;4.28;;;3.10;;
42944;SDS011;28584;42.636;23.294;2023-07-29T07:13:15;4.50;;;3.35;;
42944;SDS011;28584;42.636;23.294;2023-07-29T07:15:41;5.68;;;3.83;;
42944;SDS011;28584;42.636;23.294;2023-07-29T07:18:06;7.40;;;4.00;;
42944;SDS011;28584;42.636;23.294;2023-07-29T07:20:31;6.68;;;4.40;;
42944;SDS011;28584;42.636;23.294;2023-07-29T07:22:57;7.88;;;4.10;;
42944;SDS011;28584;42.636;23.294;2023-07-29T07:25:22;5.05;;;3.65;;
42944;SDS011;28584;42.636;23.294;2023-07-29T07:27:48;7.32;;;4.20;;
42944;SDS011;28584;42.636;23.294;2023-07-29T07:30:13;5.20;;;3.78;;
42944;SDS011;28584;42.636;23.294;2023-07-29T07:32:39;4.80;;;3.42;;
42944;SDS011;28584;42.636;23.294;2023-07-29T07:35:05;5.45;;;4.20;;
42944;SDS011;28584;42.636;23.294;2023-07-29T07:37:30;5.90;;;4.55;;
42944;SDS011;28584;42.636;23.294;2023-07-29T07:39:56;3.97;;;3.60;;
42944;SDS011;28584;42.636;23.294;2023-07-29T07:42:21;7.50;;;4.40;;
42944;SDS011;28584;42.636;23.294;2023-07-29T07:44:46;4.50;;;3.80;;
42944;SDS011;28584;42.636;23.294;2023-07-29T07:47:12;4.78;;;3.95;;
42944;SDS011;28584;42.636;23.294;2023-07-29T07:49:37;9.10;;;4.10;;
42944;SDS011;28584;42.636;23.294;2023-07-29T07:52:03;8.50;;;3.72;;
42944;SDS011;28584;42.636;23.294;2023-07-29T07:54:28;4.30;;;3.40;;
42944;SDS011;28584;42.636;23.294;2023-07-29T07:56:54;8.40;;;4.40;;
42944;SDS011;28584;42.636;23.294;2023-07-29T07:59:19;6.13;;;3.40;;
42944;SDS011;28584;42.636;23.294;2023-07-29T08:01:45;7.95;;;3.83;;
42944;SDS011;28584;42.636;23.294;2023-07-29T08:04:11;4.80;;;3.67;;
42944;SDS011;28584;42.636;23.294;2023-07-29T08:06:37;4.65;;;3.45;;
42944;SDS011;28584;42.636;23.294;2023-07-29T08:09:02;5.00;;;3.83;;
42944;SDS011;28584;42.636;23.294;2023-07-29T08:11:28;4.93;;;3.58;;
42944;SDS011;28584;42.636;23.294;2023-07-29T08:13:53;6.97;;;3.65;;
42944;SDS011;28584;42.636;23.294;2023-07-29T08:16:19;9.18;;;4.05;;
42944;SDS011;28584;42.636;23.294;2023-07-29T08:18:44;3.83;;;3.53;;
42944;SDS011;28584;42.636;23.294;2023-07-29T08:21:10;5.45;;;3.22;;
42944;SDS011;28584;42.636;23.294;2023-07-29T08:23:36;3.75;;;3.30;;
42944;SDS011;28584;42.636;23.294;2023-07-29T08:26:03;3.30;;;3.00;;
42944;SDS011;28584;42.636;23.294;2023-07-29T08:28:30;3.70;;;3.40;;
42944;SDS011;28584;42.636;23.294;2023-07-29T08:31:00;6.60;;;3.33;;
42944;SDS011;28584;42.636;23.294;2023-07-29T08:33:26;6.03;;;3.33;;
42944;SDS011;28584;42.636;23.294;2023-07-29T08:35:52;8.35;;;3.88;;
42944;SDS011;28584;42.636;23.294;2023-07-29T08:38:18;3.83;;;3.42;;
42944;SDS011;28584;42.636;23.294;2023-07-29T08:43:12;5.97;;;3.40;;
42944;SDS011;28584;42.636;23.294;2023-07-29T08:45:41;4.07;;;3.05;;
42944;SDS011;28584;42.636;23.294;2023-07-29T08:48:10;3.17;;;2.75;;
42944;SDS011;28584;42.636;23.294;2023-07-29T08:50:36;5.15;;;2.90;;
42944;SDS011;28584;42.636;23.294;2023-07-29T08:53:05;4.00;;;3.05;;
42944;SDS011;28584;42.636;23.294;2023-07-29T08:55:31;3.40;;;2.67;;
42944;SDS011;28584;42.636;23.294;2023-07-29T08:57:57;3.20;;;2.50;;
42944;SDS011;28584;42.636;23.294;2023-07-29T09:00:25;2.35;;;2.15;;
42944;SDS011;28584;42.636;23.294;2023-07-29T09:02:51;3.38;;;2.60;;
42944;SDS011;28584;42.636;23.294;2023-07-29T09:05:16;2.88;;;2.63;;
42944;SDS011;28584;42.636;23.294;2023-07-29T09:07:42;2.28;;;1.90;;
42944;SDS011;28584;42.636;23.294;2023-07-29T09:10:11;2.05;;;1.80;;
42944;SDS011;28584;42.636;23.294;2023-07-29T09:12:38;4.78;;;2.47;;
42944;SDS011;28584;42.636;23.294;2023-07-29T09:15:04;3.25;;;2.47;;
42944;SDS011;28584;42.636;23.294;2023-07-29T09:17:33;2.55;;;2.22;;
42944;SDS011;28584;42.636;23.294;2023-07-29T09:19:59;4.75;;;2.53;;
42944;SDS011;28584;42.636;23.294;2023-07-29T09:22:25;4.43;;;2.55;;
42944;SDS011;28584;42.636;23.294;2023-07-29T09:24:52;3.90;;;2.50;;
42944;SDS011;28584;42.636;23.294;2023-07-29T09:27:28;2.72;;;2.47;;
42944;SDS011;28584;42.636;23.294;2023-07-29T09:29:56;3.43;;;2.40;;
42944;SDS011;28584;42.636;23.294;2023-07-29T09:32:23;2.10;;;1.98;;
42944;SDS011;28584;42.636;23.294;2023-07-29T09:34:50;3.00;;;2.17;;
42944;SDS011;28584;42.636;23.294;2023-07-29T09:37:24;4.07;;;1.88;;
42944;SDS011;28584;42.636;23.294;2023-07-29T09:39:50;3.85;;;1.80;;
42944;SDS011;28584;42.636;23.294;2023-07-29T09:42:17;2.00;;;1.80;;
42944;SDS011;28584;42.636;23.294;2023-07-29T09:44:48;2.38;;;2.00;;
42944;SDS011;28584;42.636;23.294;2023-07-29T09:47:21;2.20;;;1.90;;
42944;SDS011;28584;42.636;23.294;2023-07-29T09:49:48;2.88;;;1.73;;
42944;SDS011;28584;42.636;23.294;2023-07-29T09:52:15;2.40;;;1.52;;
42944;SDS011;28584;42.636;23.294;2023-07-29T09:54:42;2.63;;;1.67;;
42944;SDS011;28584;42.636;23.294;2023-07-29T09:57:09;5.65;;;2.17;;
42944;SDS011;28584;42.636;23.294;2023-07-29T09:59:38;1.88;;;1.40;;
42944;SDS011;28584;42.636;23.294;2023-07-29T10:02:04;2.17;;;1.92;;
42944;SDS011;28584;42.636;23.294;2023-07-29T10:04:29;2.17;;;1.50;;
42944;SDS011;28584;42.636;23.294;2023-07-29T10:06:57;5.22;;;1.83;;
42944;SDS011;28584;42.636;23.294;2023-07-29T10:09:24;14.57;;;2.45;;
42944;SDS011;28584;42.636;23.294;2023-07-29T10:11:50;2.10;;;1.70;;
42944;SDS011;28584;42.636;23.294;2023-07-29T10:14:18;3.83;;;1.40;;
42944;SDS011;28584;42.636;23.294;2023-07-29T10:16:44;3.00;;;1.42;;
42944;SDS011;28584;42.636;23.294;2023-07-29T10:19:11;1.45;;;1.00;;
42944;SDS011;28584;42.636;23.294;2023-07-29T10:21:39;1.73;;;1.23;;
42944;SDS011;28584;42.636;23.294;2023-07-29T10:24:11;2.15;;;1.02;;
42944;SDS011;28584;42.636;23.294;2023-07-29T10:26:45;1.45;;;1.02;;
42944;SDS011;28584;42.636;23.294;2023-07-29T10:29:12;1.45;;;1.35;;
42944;SDS011;28584;42.636;23.294;2023-07-29T10:31:39;1.98;;;1.13;;
42944;SDS011;28584;42.636;23.294;2023-07-29T10:34:08;2.55;;;1.00;;
42944;SDS011;28584;42.636;23.294;2023-07-29T10:36:35;2.47;;;1.55;;
42944;SDS011;28584;42.636;23.294;2023-07-29T10:39:00;3.15;;;1.60;;
42944;SDS011;28584;42.636;23.294;2023-07-29T10:41:53;4.25;;;1.73;;
42944;SDS011;28584;42.636;23.294;2023-07-29T10:47:38;3.35;;;1.40;;
42944;SDS011;28584;42.636;23.294;2023-07-29T10:49:58;1.42;;;1.20;;
42944;SDS011;28584;42.636;23.294;2023-07-29T10:52:29;1.90;;;1.33;;
42944;SDS011;28584;42.636;23.294;2023-07-29T10:55:00;1.30;;;1.20;;
42944;SDS011;28584;42.636;23.294;2023-07-29T10:57:34;3.17;;;1.30;;
42944;SDS011;28584;42.636;23.294;2023-07-29T11:00:02;2.38;;;1.30;;
42944;SDS011;28584;42.636;23.294;2023-07-29T11:02:34;3.55;;;1.30;;
42944;SDS011;28584;42.636;23.294;2023-07-29T11:05:07;5.07;;;1.55;;
42944;SDS011;28584;42.636;23.294;2023-07-29T11:07:44;3.45;;;1.30;;
42944;SDS011;28584;42.636;23.294;2023-07-29T11:10:12;1.65;;;1.23;;
42944;SDS011;28584;42.636;23.294;2023-07-29T11:12:51;1.52;;;1.40;;
42944;SDS011;28584;42.636;23.294;2023-07-29T11:15:20;2.75;;;1.52;;
42944;SDS011;28584;42.636;23.294;2023-07-29T11:17:46;1.20;;;1.10;;
42944;SDS011;28584;42.636;23.294;2023-07-29T11:20:14;1.85;;;1.38;;
42944;SDS011;28584;42.636;23.294;2023-07-29T11:22:41;2.47;;;1.63;;
42944;SDS011;28584;42.636;23.294;2023-07-29T11:25:07;3.08;;;1.58;;
42944;SDS011;28584;42.636;23.294;2023-07-29T11:27:34;2.88;;;1.33;;
42944;SDS011;28584;42.636;23.294;2023-07-29T11:30:01;1.98;;;1.30;;
42944;SDS011;28584;42.636;23.294;2023-07-29T11:32:31;2.45;;;1.58;;
42944;SDS011;28584;42.636;23.294;2023-07-29T11:35:07;4.10;;;1.50;;
42944;SDS011;28584;42.636;23.294;2023-07-29T11:37:33;1.75;;;1.60;;
42944;SDS011;28584;42.636;23.294;2023-07-29T11:40:00;2.63;;;1.67;;
42944;SDS011;28584;42.636;23.294;2023-07-29T11:42:26;2.10;;;1.50;;
42944;SDS011;28584;42.636;23.294;2023-07-29T11:44:53;1.20;;;1.02;;
42944;SDS011;28584;42.636;23.294;2023-07-29T11:47:21;2.60;;;1.50;;
42944;SDS011;28584;42.636;23.294;2023-07-29T11:49:46;1.60;;;1.50;;
42944;SDS011;28584;42.636;23.294;2023-07-29T11:52:11;1.92;;;1.42;;
42944;SDS011;28584;42.636;23.294;2023-07-29T11:54:38;2.38;;;1.45;;
42944;SDS011;28584;42.636;23.294;2023-07-29T11:57:07;3.13;;;1.83;;
42944;SDS011;28584;42.636;23.294;2023-07-29T11:59:34;1.92;;;1.45;;
42944;SDS011;28584;42.636;23.294;2023-07-29T12:02:01;1.70;;;1.20;;
42944;SDS011;28584;42.636;23.294;2023-07-29T12:04:30;2.17;;;1.50;;
42944;SDS011;28584;42.636;23.294;2023-07-29T12:06:57;2.08;;;1.50;;
42944;SDS011;28584;42.636;23.294;2023-07-29T12:09:22;3.42;;;1.42;;
42944;SDS011;28584;42.636;23.294;2023-07-29T12:11:48;3.30;;;1.60;;
42944;SDS011;28584;42.636;23.294;2023-07-29T12:14:16;1.90;;;1.42;;
42944;SDS011;28584;42.636;23.294;2023-07-29T12:16:47;2.55;;;1.42;;
42944;SDS011;28584;42.636;23.294;2023-07-29T12:19:13;2.17;;;1.60;;
42944;SDS011;28584;42.636;23.294;2023-07-29T12:21:42;1.90;;;1.65;;
42944;SDS011;28584;42.636;23.294;2023-07-29T12:24:08;2.70;;;1.42;;
42944;SDS011;28584;42.636;23.294;2023-07-29T12:26:35;3.25;;;1.73;;
42944;SDS011;28584;42.636;23.294;2023-07-29T12:29:11;3.70;;;1.73;;
42944;SDS011;28584;42.636;23.294;2023-07-29T12:31:37;5.55;;;1.70;;
42944;SDS011;28584;42.636;23.294;2023-07-29T12:34:03;4.43;;;2.08;;
42944;SDS011;28584;42.636;23.294;2023-07-29T12:36:47;2.22;;;1.70;;
42944;SDS011;28584;42.636;23.294;2023-07-29T12:41:53;2.95;;;1.83;;
42944;SDS011;28584;42.636;23.294;2023-07-29T12:44:20;1.42;;;1.33;;
42944;SDS011;28584;42.636;23.294;2023-07-29T12:46:48;6.88;;;1.90;;
42944;SDS011;28584;42.636;23.294;2023-07-29T12:49:13;1.65;;;1.50;;
42944;SDS011;28584;42.636;23.294;2023-07-29T12:51:39;1.77;;;1.48;;
42944;SDS011;28584;42.636;23.294;2023-07-29T12:54:04;1.77;;;1.50;;
42944;SDS011;28584;42.636;23.294;2023-07-29T12:56:30;2.00;;;1.80;;
42944;SDS011;28584;42.636;23.294;2023-07-29T12:58:56;3.53;;;1.60;;
42944;SDS011;28584;42.636;23.294;2023-07-29T13:01:23;2.05;;;1.70;;
42944;SDS011;28584;42.636;23.294;2023-07-29T13:03:49;2.15;;;1.77;;
42944;SDS011;28584;42.636;23.294;2023-07-29T13:06:14;5.70;;;1.60;;
42944;SDS011;28584;42.636;23.294;2023-07-29T13:08:41;1.73;;;1.50;;
42944;SDS011;28584;42.636;23.294;2023-07-29T13:11:07;1.58;;;1.48;;
42944;SDS011;28584;42.636;23.294;2023-07-29T13:13:32;2.20;;;1.35;;
42944;SDS011;28584;42.636;23.294;2023-07-29T13:15:58;3.72;;;1.55;;
42944;SDS011;28584;42.636;23.294;2023-07-29T13:18:24;1.88;;;1.77;;
42944;SDS011;28584;42.636;23.294;2023-07-29T13:20:49;2.50;;;1.42;;
42944;SDS011;28584;42.636;23.294;2023-07-29T13:23:15;3.63;;;1.48;;
42944;SDS011;28584;42.636;23.294;2023-07-29T13:25:41;2.35;;;1.35;;
42944;SDS011;28584;42.636;23.294;2023-07-29T13:28:06;1.88;;;1.58;;
42944;SDS011;28584;42.636;23.294;2023-07-29T13:30:33;3.97;;;1.33;;
42944;SDS011;28584;42.636;23.294;2023-07-29T13:32:58;3.50;;;1.60;;
42944;SDS011;28584;42.636;23.294;2023-07-29T13:35:24;2.17;;;1.98;;
42944;SDS011;28584;42.636;23.294;2023-07-29T13:37:49;1.98;;;1.70;;
42944;SDS011;28584;42.636;23.294;2023-07-29T13:40:15;4.00;;;2.00;;
42944;SDS011;28584;42.636;23.294;2023-07-29T13:42:40;2.38;;;2.17;;
42944;SDS011;28584;42.636;23.294;2023-07-29T13:45:06;1.80;;;1.70;;
42944;SDS011;28584;42.636;23.294;2023-07-29T13:47:32;2.95;;;1.75;;
42944;SDS011;28584;42.636;23.294;2023-07-29T13:49:59;2.53;;;1.90;;
42944;SDS011;28584;42.636;23.294;2023-07-29T13:52:25;2.00;;;1.90;;
42944;SDS011;28584;42.636;23.294;2023-07-29T13:54:50;3.15;;;1.75;;
42944;SDS011;28584;42.636;23.294;2023-07-29T13:57:16;2.40;;;1.77;;
42944;SDS011;28584;42.636;23.294;2023-07-29T13:59:41;3.70;;;2.05;;
42944;SDS011;28584;42.636;23.294;2023-07-29T14:02:06;1.50;;;1.40;;
42944;SDS011;28584;42.636;23.294;2023-07-29T14:04:32;2.10;;;1.77;;
42944;SDS011;28584;42.636;23.294;2023-07-29T14:06:58;2.50;;;2.25;;
42944;SDS011;28584;42.636;23.294;2023-07-29T14:09:24;2.90;;;2.05;;
42944;SDS011;28584;42.636;23.294;2023-07-29T14:11:50;4.00;;;2.50;;
42944;SDS011;28584;42.636;23.294;2023-07-29T14:14:16;4.43;;;2.88;;
42944;SDS011;28584;42.636;23.294;2023-07-29T14:16:41;4.55;;;2.50;;
42944;SDS011;28584;42.636;23.294;2023-07-29T14:19:07;4.25;;;2.63;;
42944;SDS011;28584;42.636;23.294;2023-07-29T14:21:32;3.22;;;2.40;;
42944;SDS011;28584;42.636;23.294;2023-07-29T14:23:58;4.80;;;2.50;;
42944;SDS011;28584;42.636;23.294;2023-07-29T14:26:23;5.53;;;2.50;;
42944;SDS011;28584;42.636;23.294;2023-07-29T14:28:49;5.65;;;2.63;;
42944;SDS011;28584;42.636;23.294;2023-07-29T14:31:15;3.55;;;2.35;;
42944;SDS011;28584;42.636;23.294;2023-07-29T14:33:42;4.97;;;2.95;;
42944;SDS011;28584;42.636;23.294;2023-07-29T14:36:08;2.40;;;2.15;;
42944;SDS011;28584;42.636;23.294;2023-07-29T14:38:34;3.28;;;2.25;;
42944;SDS011;28584;42.636;23.294;2023-07-29T14:41:00;2.05;;;1.85;;
42944;SDS011;28584;42.636;23.294;2023-07-29T14:43:25;3.05;;;1.88;;
42944;SDS011;28584;42.636;23.294;2023-07-29T14:45:51;6.68;;;2.13;;
42944;SDS011;28584;42.636;23.294;2023-07-29T14:48:16;2.35;;;1.60;;